Time,TemperatureF,DewpointF,PressureIn,WindDirection,WindDirectionDegrees,WindSpeedMPH,WindSpeedGustMPH,Humidity,HourlyPrecipIn,Conditions,Clouds,dailyrainin,SoftwareType,DateUTC
2013-12-14 00:00:00,9.5,6.9,30.40,NW,321,2.0,5.0,89,0.00,,---,0.00,VWS V14.01,2013-12-14 05:00:00,
2013-12-14 00:01:00,9.5,6.9,30.40,NW,321,2.0,5.0,89,0.00,,---,0.00,VWS V14.01,2013-12-14 05:01:00,
2013-12-14 00:05:00,9.2,6.6,30.40,NW,321,5.0,5.0,89,0.00,,---,0.00,VWS V14.01,2013-12-14 05:05:00,
2013-12-14 00:06:00,9.2,6.6,30.40,NW,321,5.0,5.0,89,0.00,,---,0.00,VWS V14.01,2013-12-14 05:06:00,
2013-12-14 00:10:00,9.1,6.5,30.40,NNW,346,1.0,6.0,89,0.00,,---,0.00,VWS V14.01,2013-12-14 05:10:00,
2013-12-14 00:11:00,9.1,6.5,30.40,NNW,346,1.0,6.0,89,0.00,,---,0.00,VWS V14.01,2013-12-14 05:11:00,
2013-12-14 00:15:00,8.8,6.0,30.40,NNW,329,6.0,8.0,88,0.00,,---,0.00,VWS V14.01,2013-12-14 05:15:00,
2013-12-14 00:16:00,8.8,6.0,30.40,NNW,329,6.0,8.0,88,0.00,,---,0.00,VWS V14.01,2013-12-14 05:16:00,
2013-12-14 00:20:00,8.6,5.8,30.40,NW,323,2.0,6.0,88,0.00,,---,0.00,VWS V14.01,2013-12-14 05:20:00,
2013-12-14 00:21:00,8.6,5.8,30.40,NW,323,2.0,6.0,88,0.00,,---,0.00,VWS V14.01,2013-12-14 05:21:00,
2013-12-14 00:25:00,8.5,5.7,30.40,NW,321,3.0,5.0,88,0.00,,---,0.00,VWS V14.01,2013-12-14 05:25:00,
2013-12-14 00:26:00,8.5,5.7,30.40,NW,321,3.0,5.0,88,0.00,,---,0.00,VWS V14.01,2013-12-14 05:26:00,
2013-12-14 00:30:00,8.4,5.6,30.40,NW,322,3.0,6.0,88,0.00,,---,0.00,VWS V14.01,2013-12-14 05:30:00,
2013-12-14 00:31:00,8.4,5.6,30.40,NW,322,3.0,6.0,88,0.00,,---,0.00,VWS V14.01,2013-12-14 05:31:00,
2013-12-14 00:35:00,8.3,5.5,30.40,NW,319,7.0,7.0,88,0.00,,---,0.00,VWS V14.01,2013-12-14 05:35:00,
2013-12-14 00:36:00,8.3,5.5,30.40,NW,319,7.0,7.0,88,0.00,,---,0.00,VWS V14.01,2013-12-14 05:36:00,
2013-12-14 00:40:00,8.2,5.4,30.40,NW,308,8.0,8.0,88,0.00,,---,0.00,VWS V14.01,2013-12-14 05:40:00,
2013-12-14 00:41:00,8.2,5.4,30.40,NW,308,8.0,8.0,88,0.00,,---,0.00,VWS V14.01,2013-12-14 05:41:00,
2013-12-14 00:45:00,8.0,4.9,30.40,NW,322,3.0,9.0,87,0.00,,---,0.00,VWS V14.01,2013-12-14 05:45:00,
2013-12-14 00:46:00,8.0,4.9,30.40,NW,322,3.0,9.0,87,0.00,,---,0.00,VWS V14.01,2013-12-14 05:46:00,
2013-12-14 00:50:00,8.0,4.9,30.40,NW,316,2.0,6.0,87,0.00,,---,0.00,VWS V14.01,2013-12-14 05:50:00,
2013-12-14 00:51:00,8.0,4.9,30.40,NW,316,2.0,6.0,87,0.00,,---,0.00,VWS V14.01,2013-12-14 05:51:00,
2013-12-14 00:55:00,7.8,4.5,30.41,NW,311,7.0,9.0,86,0.00,,---,0.00,VWS V14.01,2013-12-14 05:55:00,
2013-12-14 00:56:00,7.8,4.5,30.41,NW,311,7.0,9.0,86,0.00,,---,0.00,VWS V14.01,2013-12-14 05:56:00,
2013-12-14 01:00:00,7.8,4.2,30.41,NNW,336,4.0,8.0,85,0.00,,---,0.00,VWS V14.01,2013-12-14 06:00:00,
2013-12-14 01:01:00,7.8,4.2,30.41,NNW,336,4.0,8.0,85,0.00,,---,0.00,VWS V14.01,2013-12-14 06:01:00,
2013-12-14 01:05:00,7.7,3.9,30.41,NW,324,6.0,10.0,84,0.00,,---,0.00,VWS V14.01,2013-12-14 06:05:00,
2013-12-14 01:06:00,7.7,3.9,30.41,NW,324,6.0,10.0,84,0.00,,---,0.00,VWS V14.01,2013-12-14 06:06:00,
2013-12-14 01:10:00,7.6,3.5,30.41,NNW,333,4.0,7.0,83,0.00,,---,0.00,VWS V14.01,2013-12-14 06:10:00,
2013-12-14 01:11:00,7.6,3.5,30.41,NNW,333,4.0,7.0,83,0.00,,---,0.00,VWS V14.01,2013-12-14 06:11:00,
2013-12-14 01:15:00,7.5,3.4,30.41,NNW,342,7.0,8.0,83,0.00,,---,0.00,VWS V14.01,2013-12-14 06:15:00,
2013-12-14 01:16:00,7.5,3.4,30.41,NNW,342,7.0,8.0,83,0.00,,---,0.00,VWS V14.01,2013-12-14 06:16:00,
2013-12-14 01:20:00,7.4,3.1,30.41,North,352,3.0,9.0,82,0.00,,---,0.00,VWS V14.01,2013-12-14 06:20:00,
2013-12-14 01:21:00,7.4,3.1,30.41,North,352,3.0,9.0,82,0.00,,---,0.00,VWS V14.01,2013-12-14 06:21:00,
2013-12-14 01:25:00,7.3,3.0,30.42,NNE,23,3.0,8.0,82,0.00,,---,0.00,VWS V14.01,2013-12-14 06:25:00,
2013-12-14 01:26:00,7.3,3.0,30.42,NNE,23,3.0,8.0,82,0.00,,---,0.00,VWS V14.01,2013-12-14 06:26:00,
2013-12-14 01:30:00,7.1,3.0,30.42,ENE,60,3.0,8.0,83,0.00,,---,0.00,VWS V14.01,2013-12-14 06:30:00,
2013-12-14 01:31:00,7.1,3.0,30.42,ENE,60,3.0,8.0,83,0.00,,---,0.00,VWS V14.01,2013-12-14 06:31:00,
2013-12-14 01:35:00,6.7,2.9,30.43,NNE,25,2.0,6.0,84,0.00,,---,0.00,VWS V14.01,2013-12-14 06:35:00,
2013-12-14 01:36:00,6.7,2.9,30.43,NNE,25,2.0,6.0,84,0.00,,---,0.00,VWS V14.01,2013-12-14 06:36:00,
2013-12-14 01:40:00,6.4,2.9,30.42,NNE,27,2.0,6.0,85,0.00,,---,0.00,VWS V14.01,2013-12-14 06:40:00,
2013-12-14 01:41:00,6.4,2.9,30.42,NNE,27,2.0,6.0,85,0.00,,---,0.00,VWS V14.01,2013-12-14 06:41:00,
2013-12-14 01:45:00,6.1,2.6,30.43,NNW,346,2.0,8.0,85,0.00,,---,0.00,VWS V14.01,2013-12-14 06:45:00,
2013-12-14 01:46:00,6.1,2.6,30.43,NNW,346,2.0,8.0,85,0.00,,---,0.00,VWS V14.01,2013-12-14 06:46:00,
2013-12-14 01:50:00,6.0,2.5,30.44,North,356,0.0,6.0,85,0.00,,---,0.00,VWS V14.01,2013-12-14 06:50:00,
2013-12-14 01:51:00,6.0,2.5,30.44,North,356,0.0,6.0,85,0.00,,---,0.00,VWS V14.01,2013-12-14 06:51:00,
2013-12-14 01:55:00,5.8,2.3,30.44,North,354,1.0,3.0,85,0.00,,---,0.00,VWS V14.01,2013-12-14 06:55:00,
2013-12-14 01:56:00,5.8,2.3,30.44,North,354,1.0,3.0,85,0.00,,---,0.00,VWS V14.01,2013-12-14 06:56:00,
2013-12-14 02:00:00,5.6,2.1,30.44,NNW,335,2.0,6.0,85,0.00,,---,0.00,VWS V14.01,2013-12-14 07:00:00,
2013-12-14 02:01:00,5.6,2.1,30.44,NNW,335,2.0,6.0,85,0.00,,---,0.00,VWS V14.01,2013-12-14 07:01:00,
2013-12-14 02:05:00,5.6,2.1,30.44,NNE,19,2.0,5.0,85,0.00,,---,0.00,VWS V14.01,2013-12-14 07:05:00,
2013-12-14 02:06:00,5.6,2.1,30.44,NNE,19,2.0,5.0,85,0.00,,---,0.00,VWS V14.01,2013-12-14 07:06:00,
2013-12-14 02:10:00,5.5,2.0,30.44,North,354,1.0,4.0,85,0.00,,---,0.00,VWS V14.01,2013-12-14 07:10:00,
2013-12-14 02:11:00,5.5,2.0,30.44,North,354,1.0,4.0,85,0.00,,---,0.00,VWS V14.01,2013-12-14 07:11:00,
2013-12-14 02:15:00,5.3,1.8,30.44,NNE,29,1.0,5.0,85,0.00,,---,0.00,VWS V14.01,2013-12-14 07:15:00,
2013-12-14 02:16:00,5.3,1.8,30.44,NNE,29,1.0,5.0,85,0.00,,---,0.00,VWS V14.01,2013-12-14 07:16:00,
2013-12-14 02:20:00,5.1,1.6,30.45,NNE,32,1.0,3.0,85,0.00,,---,0.00,VWS V14.01,2013-12-14 07:20:00,
2013-12-14 02:21:00,5.1,1.6,30.45,NNE,32,1.0,3.0,85,0.00,,---,0.00,VWS V14.01,2013-12-14 07:21:00,
2013-12-14 02:25:00,5.0,1.5,30.45,NNE,33,1.0,3.0,85,0.00,,---,0.00,VWS V14.01,2013-12-14 07:25:00,
2013-12-14 02:26:00,5.0,1.5,30.45,NNE,33,1.0,3.0,85,0.00,,---,0.00,VWS V14.01,2013-12-14 07:26:00,
2013-12-14 02:30:00,4.9,1.4,30.45,NE,34,1.0,5.0,85,0.00,,---,0.00,VWS V14.01,2013-12-14 07:30:00,
2013-12-14 02:31:00,4.9,1.4,30.45,NE,34,1.0,5.0,85,0.00,,---,0.00,VWS V14.01,2013-12-14 07:31:00,
2013-12-14 02:35:00,4.7,1.2,30.45,NE,52,4.0,4.0,85,0.00,,---,0.00,VWS V14.01,2013-12-14 07:35:00,
2013-12-14 02:36:00,4.7,1.2,30.45,NE,52,4.0,4.0,85,0.00,,---,0.00,VWS V14.01,2013-12-14 07:36:00,
2013-12-14 02:40:00,4.6,1.1,30.45,NE,34,3.0,6.0,85,0.00,,---,0.00,VWS V14.01,2013-12-14 07:40:00,
2013-12-14 02:41:00,4.6,1.1,30.45,NE,34,3.0,6.0,85,0.00,,---,0.00,VWS V14.01,2013-12-14 07:41:00,
2013-12-14 02:45:00,4.5,1.0,30.45,NNE,30,2.0,5.0,85,0.00,,---,0.00,VWS V14.01,2013-12-14 07:45:00,
2013-12-14 02:46:00,4.5,1.0,30.45,NNE,30,2.0,5.0,85,0.00,,---,0.00,VWS V14.01,2013-12-14 07:46:00,
2013-12-14 02:50:00,4.5,1.0,30.45,NNE,19,3.0,4.0,85,0.00,,---,0.00,VWS V14.01,2013-12-14 07:50:00,
2013-12-14 02:51:00,4.5,1.0,30.45,NNE,19,3.0,4.0,85,0.00,,---,0.00,VWS V14.01,2013-12-14 07:51:00,
2013-12-14 02:55:00,4.4,0.9,30.45,NNE,29,6.0,7.0,85,0.00,,---,0.00,VWS V14.01,2013-12-14 07:55:00,
2013-12-14 02:56:00,4.4,0.9,30.45,NNE,29,6.0,7.0,85,0.00,,---,0.00,VWS V14.01,2013-12-14 07:56:00,
2013-12-14 03:00:00,4.3,0.8,30.45,ENE,64,3.0,6.0,85,0.00,,---,0.00,VWS V14.01,2013-12-14 08:00:00,
2013-12-14 03:01:00,4.3,0.8,30.45,ENE,64,3.0,6.0,85,0.00,,---,0.00,VWS V14.01,2013-12-14 08:01:00,
2013-12-14 03:05:00,4.1,0.6,30.45,NNE,26,4.0,7.0,85,0.00,,---,0.00,VWS V14.01,2013-12-14 08:05:00,
2013-12-14 03:06:00,4.1,0.6,30.45,NNE,26,4.0,7.0,85,0.00,,---,0.00,VWS V14.01,2013-12-14 08:06:00,
2013-12-14 03:10:00,3.2,-0.5,30.45,NE,51,4.0,7.0,84,0.00,,---,0.00,VWS V14.01,2013-12-14 08:10:00,
2013-12-14 03:11:00,3.2,-0.5,30.45,NE,51,4.0,7.0,84,0.00,,---,0.00,VWS V14.01,2013-12-14 08:11:00,
2013-12-14 03:15:00,3.2,-0.5,30.45,NE,51,4.0,4.0,84,0.00,,---,0.00,VWS V14.01,2013-12-14 08:15:00,
2013-12-14 03:16:00,3.2,-0.5,30.45,NE,51,4.0,4.0,84,0.00,,---,0.00,VWS V14.01,2013-12-14 08:16:00,
2013-12-14 03:20:00,3.2,-0.5,30.45,NE,51,4.0,4.0,84,0.00,,---,0.00,VWS V14.01,2013-12-14 08:20:00,
2013-12-14 03:21:00,3.2,-0.5,30.45,NE,51,4.0,4.0,84,0.00,,---,0.00,VWS V14.01,2013-12-14 08:21:00,
2013-12-14 03:25:00,3.2,-0.5,30.45,NE,51,4.0,4.0,84,0.00,,---,0.00,VWS V14.01,2013-12-14 08:25:00,
2013-12-14 03:26:00,3.2,-0.5,30.45,NE,51,4.0,4.0,84,0.00,,---,0.00,VWS V14.01,2013-12-14 08:26:00,
2013-12-14 03:30:00,3.2,-0.5,30.45,NE,51,4.0,4.0,84,0.00,,---,0.00,VWS V14.01,2013-12-14 08:30:00,
2013-12-14 03:31:00,3.2,-0.5,30.45,NE,51,4.0,4.0,84,0.00,,---,0.00,VWS V14.01,2013-12-14 08:31:00,
2013-12-14 03:35:00,3.2,-0.3,30.45,NNE,30,3.0,4.0,85,0.00,,---,0.00,VWS V14.01,2013-12-14 08:35:00,
2013-12-14 03:36:00,3.2,-0.3,30.45,NNE,30,3.0,4.0,85,0.00,,---,0.00,VWS V14.01,2013-12-14 08:36:00,
2013-12-14 03:40:00,3.1,-0.6,30.45,NNE,31,6.0,8.0,84,0.00,,---,0.00,VWS V14.01,2013-12-14 08:40:00,
2013-12-14 03:41:00,3.1,-0.6,30.45,NNE,31,6.0,8.0,84,0.00,,---,0.00,VWS V14.01,2013-12-14 08:41:00,
2013-12-14 03:45:00,3.0,-0.7,30.45,NE,47,5.0,7.0,84,0.00,,---,0.00,VWS V14.01,2013-12-14 08:45:00,
2013-12-14 03:46:00,3.0,-0.7,30.45,NE,47,5.0,7.0,84,0.00,,---,0.00,VWS V14.01,2013-12-14 08:46:00,
2013-12-14 03:50:00,3.0,-0.7,30.45,NNE,24,2.0,7.0,84,0.00,,---,0.00,VWS V14.01,2013-12-14 08:50:00,
2013-12-14 03:51:00,3.0,-0.7,30.45,NNE,24,2.0,7.0,84,0.00,,---,0.00,VWS V14.01,2013-12-14 08:51:00,
2013-12-14 03:55:00,2.9,-0.6,30.45,North,8,3.0,7.0,85,0.00,,---,0.00,VWS V14.01,2013-12-14 08:55:00,
2013-12-14 03:56:00,2.9,-0.6,30.45,North,8,3.0,7.0,85,0.00,,---,0.00,VWS V14.01,2013-12-14 08:56:00,
2013-12-14 04:00:00,2.8,-0.7,30.46,ENE,78,2.0,5.0,85,0.00,,---,0.00,VWS V14.01,2013-12-14 09:00:00,
2013-12-14 04:01:00,2.8,-0.7,30.46,ENE,78,2.0,5.0,85,0.00,,---,0.00,VWS V14.01,2013-12-14 09:01:00,
2013-12-14 04:05:00,2.7,-0.8,30.46,North,354,4.0,6.0,85,0.00,,---,0.00,VWS V14.01,2013-12-14 09:05:00,
2013-12-14 04:06:00,2.7,-0.8,30.46,North,354,4.0,6.0,85,0.00,,---,0.00,VWS V14.01,2013-12-14 09:06:00,
2013-12-14 04:10:00,2.5,-1.0,30.46,NNE,15,6.0,8.0,85,0.00,,---,0.00,VWS V14.01,2013-12-14 09:10:00,
2013-12-14 04:11:00,2.5,-1.0,30.46,NNE,15,6.0,8.0,85,0.00,,---,0.00,VWS V14.01,2013-12-14 09:11:00,
2013-12-14 04:15:00,2.4,-0.8,30.46,NNE,25,2.0,7.0,86,0.00,,---,0.00,VWS V14.01,2013-12-14 09:15:00,
2013-12-14 04:16:00,2.4,-0.8,30.46,NNE,25,2.0,7.0,86,0.00,,---,0.00,VWS V14.01,2013-12-14 09:16:00,
2013-12-14 04:20:00,2.3,-0.9,30.45,NE,50,6.0,8.0,86,0.00,,---,0.00,VWS V14.01,2013-12-14 09:20:00,
2013-12-14 04:21:00,2.3,-0.9,30.45,NE,50,6.0,8.0,86,0.00,,---,0.00,VWS V14.01,2013-12-14 09:21:00,
2013-12-14 04:25:00,2.2,-1.0,30.46,North,11,4.0,7.0,86,0.00,,---,0.00,VWS V14.01,2013-12-14 09:25:00,
2013-12-14 04:26:00,2.2,-1.0,30.46,North,11,4.0,7.0,86,0.00,,---,0.00,VWS V14.01,2013-12-14 09:26:00,
2013-12-14 04:30:00,2.1,-1.1,30.46,NNE,20,5.0,8.0,86,0.00,,---,0.00,VWS V14.01,2013-12-14 09:30:00,
2013-12-14 04:31:00,2.1,-1.1,30.46,NNE,20,5.0,8.0,86,0.00,,---,0.00,VWS V14.01,2013-12-14 09:31:00,
2013-12-14 04:35:00,1.9,-1.3,30.47,NNE,27,4.0,7.0,86,0.00,,---,0.00,VWS V14.01,2013-12-14 09:35:00,
2013-12-14 04:36:00,1.9,-1.3,30.47,NNE,27,4.0,7.0,86,0.00,,---,0.00,VWS V14.01,2013-12-14 09:36:00,
2013-12-14 04:40:00,1.9,-1.3,30.47,North,11,4.0,7.0,86,0.00,,---,0.00,VWS V14.01,2013-12-14 09:40:00,
2013-12-14 04:41:00,1.9,-1.3,30.47,North,11,4.0,7.0,86,0.00,,---,0.00,VWS V14.01,2013-12-14 09:41:00,
2013-12-14 04:45:00,1.9,-1.3,30.47,NE,47,4.0,8.0,86,0.00,,---,0.00,VWS V14.01,2013-12-14 09:45:00,
2013-12-14 04:46:00,1.9,-1.3,30.47,NE,47,4.0,8.0,86,0.00,,---,0.00,VWS V14.01,2013-12-14 09:46:00,
2013-12-14 04:50:00,1.9,-1.3,30.47,NE,50,3.0,6.0,86,0.00,,---,0.00,VWS V14.01,2013-12-14 09:50:00,
2013-12-14 04:51:00,1.9,-1.3,30.47,NE,50,3.0,6.0,86,0.00,,---,0.00,VWS V14.01,2013-12-14 09:51:00,
2013-12-14 04:55:00,1.9,-1.3,30.47,ENE,70,5.0,7.0,86,0.00,,---,0.00,VWS V14.01,2013-12-14 09:55:00,
2013-12-14 04:56:00,1.9,-1.3,30.47,ENE,70,5.0,7.0,86,0.00,,---,0.00,VWS V14.01,2013-12-14 09:56:00,
2013-12-14 05:00:00,1.8,-1.4,30.48,NNE,33,5.0,7.0,86,0.00,,---,0.00,VWS V14.01,2013-12-14 10:00:00,
2013-12-14 05:01:00,1.8,-1.4,30.48,NNE,33,5.0,7.0,86,0.00,,---,0.00,VWS V14.01,2013-12-14 10:01:00,
2013-12-14 05:05:00,1.8,-1.4,30.48,NNE,21,6.0,8.0,86,0.00,,---,0.00,VWS V14.01,2013-12-14 10:05:00,
2013-12-14 05:06:00,1.8,-1.4,30.48,NNE,21,6.0,8.0,86,0.00,,---,0.00,VWS V14.01,2013-12-14 10:06:00,
2013-12-14 05:10:00,1.7,-1.5,30.48,NNE,18,4.0,7.0,86,0.00,,---,0.00,VWS V14.01,2013-12-14 10:10:00,
2013-12-14 05:11:00,1.7,-1.5,30.48,NNE,18,4.0,7.0,86,0.00,,---,0.00,VWS V14.01,2013-12-14 10:11:00,
2013-12-14 05:15:00,1.7,-1.5,30.48,NNE,18,4.0,7.0,86,0.00,,---,0.00,VWS V14.01,2013-12-14 10:15:00,
2013-12-14 05:16:00,1.7,-1.5,30.48,NNE,18,4.0,7.0,86,0.00,,---,0.00,VWS V14.01,2013-12-14 10:16:00,
2013-12-14 05:20:00,1.7,-1.5,30.48,NNE,27,4.0,6.0,86,0.00,,---,0.00,VWS V14.01,2013-12-14 10:20:00,
2013-12-14 05:21:00,1.7,-1.5,30.48,NNE,27,4.0,6.0,86,0.00,,---,0.00,VWS V14.01,2013-12-14 10:21:00,
2013-12-14 05:25:00,1.7,-1.5,30.48,NE,52,2.0,4.0,86,0.00,,---,0.00,VWS V14.01,2013-12-14 10:25:00,
2013-12-14 05:26:00,1.7,-1.5,30.48,NE,52,2.0,4.0,86,0.00,,---,0.00,VWS V14.01,2013-12-14 10:26:00,
2013-12-14 05:30:00,1.7,-1.5,30.48,NE,34,2.0,6.0,86,0.00,,---,0.00,VWS V14.01,2013-12-14 10:30:00,
2013-12-14 05:31:00,1.7,-1.5,30.48,NE,34,2.0,6.0,86,0.00,,---,0.00,VWS V14.01,2013-12-14 10:31:00,
2013-12-14 05:35:00,1.6,-1.6,30.48,NE,34,3.0,5.0,86,0.00,,---,0.00,VWS V14.01,2013-12-14 10:35:00,
2013-12-14 05:36:00,1.6,-1.6,30.48,NE,34,3.0,5.0,86,0.00,,---,0.00,VWS V14.01,2013-12-14 10:36:00,
2013-12-14 05:40:00,1.4,-1.8,30.49,NNW,338,3.0,6.0,86,0.00,,---,0.00,VWS V14.01,2013-12-14 10:40:00,
2013-12-14 05:41:00,1.4,-1.8,30.49,NNW,338,3.0,6.0,86,0.00,,---,0.00,VWS V14.01,2013-12-14 10:41:00,
2013-12-14 05:45:00,1.4,-1.8,30.49,ENE,70,1.0,4.0,86,0.00,,---,0.00,VWS V14.01,2013-12-14 10:45:00,
2013-12-14 05:46:00,1.4,-1.8,30.49,ENE,70,1.0,4.0,86,0.00,,---,0.00,VWS V14.01,2013-12-14 10:46:00,
2013-12-14 05:50:00,1.4,-1.8,30.50,NE,56,1.0,3.0,86,0.00,,---,0.00,VWS V14.01,2013-12-14 10:50:00,
2013-12-14 05:51:00,1.4,-1.8,30.50,NE,56,1.0,3.0,86,0.00,,---,0.00,VWS V14.01,2013-12-14 10:51:00,
2013-12-14 05:55:00,1.5,-1.5,30.50,NE,52,0.0,2.0,87,0.00,,---,0.00,VWS V14.01,2013-12-14 10:55:00,
2013-12-14 05:56:00,1.5,-1.5,30.50,NE,52,0.0,2.0,87,0.00,,---,0.00,VWS V14.01,2013-12-14 10:56:00,
2013-12-14 06:00:00,1.4,-1.8,30.50,East,89,1.0,2.0,86,0.00,,---,0.00,VWS V14.01,2013-12-14 11:00:00,
2013-12-14 06:01:00,1.4,-1.8,30.50,East,89,1.0,2.0,86,0.00,,---,0.00,VWS V14.01,2013-12-14 11:01:00,
2013-12-14 06:05:00,1.4,-1.8,30.50,NE,41,0.0,3.0,86,0.00,,---,0.00,VWS V14.01,2013-12-14 11:05:00,
2013-12-14 06:06:00,1.4,-1.8,30.50,NE,41,0.0,3.0,86,0.00,,---,0.00,VWS V14.01,2013-12-14 11:06:00,
2013-12-14 06:10:00,1.3,-1.9,30.50,NE,41,1.0,1.0,86,0.00,,---,0.00,VWS V14.01,2013-12-14 11:10:00,
2013-12-14 06:11:00,1.3,-1.9,30.50,NE,41,1.0,1.0,86,0.00,,---,0.00,VWS V14.01,2013-12-14 11:11:00,
2013-12-14 06:15:00,1.3,-1.7,30.50,ENE,65,1.0,2.0,87,0.00,,---,0.00,VWS V14.01,2013-12-14 11:15:00,
2013-12-14 06:16:00,1.3,-1.7,30.50,ENE,65,1.0,2.0,87,0.00,,---,0.00,VWS V14.01,2013-12-14 11:16:00,
2013-12-14 06:20:00,1.3,-1.9,30.50,NNE,24,2.0,4.0,86,0.00,,---,0.00,VWS V14.01,2013-12-14 11:20:00,
2013-12-14 06:21:00,1.3,-1.9,30.50,NNE,24,2.0,4.0,86,0.00,,---,0.00,VWS V14.01,2013-12-14 11:21:00,
2013-12-14 06:25:00,1.3,-1.7,30.50,NE,48,0.0,3.0,87,0.00,,---,0.00,VWS V14.01,2013-12-14 11:25:00,
2013-12-14 06:26:00,1.3,-1.7,30.50,NE,48,0.0,3.0,87,0.00,,---,0.00,VWS V14.01,2013-12-14 11:26:00,
2013-12-14 06:30:00,1.2,-2.0,30.50,NE,47,1.0,2.0,86,0.00,,---,0.00,VWS V14.01,2013-12-14 11:30:00,
2013-12-14 06:31:00,1.2,-2.0,30.50,NE,47,1.0,2.0,86,0.00,,---,0.00,VWS V14.01,2013-12-14 11:31:00,
2013-12-14 06:35:00,1.2,-1.8,30.51,NE,44,0.0,1.0,87,0.00,,---,0.00,VWS V14.01,2013-12-14 11:35:00,
2013-12-14 06:36:00,1.2,-1.8,30.51,NE,44,0.0,1.0,87,0.00,,---,0.00,VWS V14.01,2013-12-14 11:36:00,
2013-12-14 06:40:00,1.3,-1.7,30.51,NE,43,0.0,2.0,87,0.00,,---,0.00,VWS V14.01,2013-12-14 11:40:00,
2013-12-14 06:41:00,1.3,-1.7,30.51,NE,43,0.0,2.0,87,0.00,,---,0.00,VWS V14.01,2013-12-14 11:41:00,
2013-12-14 06:45:00,1.3,-1.7,30.51,NNE,15,2.0,3.0,87,0.00,,---,0.00,VWS V14.01,2013-12-14 11:45:00,
2013-12-14 06:46:00,1.3,-1.7,30.51,NNE,15,2.0,3.0,87,0.00,,---,0.00,VWS V14.01,2013-12-14 11:46:00,
2013-12-14 06:50:00,1.2,-1.8,30.51,NE,47,3.0,5.0,87,0.00,,---,0.00,VWS V14.01,2013-12-14 11:50:00,
2013-12-14 06:51:00,1.2,-1.8,30.51,NE,47,3.0,5.0,87,0.00,,---,0.00,VWS V14.01,2013-12-14 11:51:00,
2013-12-14 06:55:00,1.2,-1.8,30.51,NNE,30,1.0,4.0,87,0.00,,---,0.00,VWS V14.01,2013-12-14 11:55:00,
2013-12-14 06:56:00,1.2,-1.8,30.51,NNE,30,1.0,4.0,87,0.00,,---,0.00,VWS V14.01,2013-12-14 11:56:00,
2013-12-14 07:00:00,1.2,-1.8,30.50,NE,52,5.0,5.0,87,0.00,,---,0.00,VWS V14.01,2013-12-14 12:00:00,
2013-12-14 07:05:00,1.1,-1.9,30.51,NE,44,1.0,5.0,87,0.00,,---,0.00,VWS V14.01,2013-12-14 12:05:00,
2013-12-14 07:06:00,1.1,-1.9,30.51,NE,44,1.0,5.0,87,0.00,,---,0.00,VWS V14.01,2013-12-14 12:06:00,
2013-12-14 07:10:00,1.1,-1.9,30.52,ENE,78,0.0,3.0,87,0.00,,---,0.00,VWS V14.01,2013-12-14 12:10:00,
2013-12-14 07:11:00,1.1,-1.9,30.52,ENE,78,0.0,3.0,87,0.00,,---,0.00,VWS V14.01,2013-12-14 12:11:00,
2013-12-14 07:15:00,1.0,-2.0,30.52,North,11,1.0,5.0,87,0.00,,---,0.00,VWS V14.01,2013-12-14 12:15:00,
2013-12-14 07:16:00,1.0,-2.0,30.52,North,11,1.0,5.0,87,0.00,,---,0.00,VWS V14.01,2013-12-14 12:16:00,
2013-12-14 07:20:00,0.9,-2.1,30.52,North,11,3.0,5.0,87,0.00,,---,0.00,VWS V14.01,2013-12-14 12:20:00,
2013-12-14 07:21:00,0.9,-2.0,30.52,North,11,3.0,5.0,87,0.00,,---,0.00,VWS V14.01,2013-12-14 12:21:00,
2013-12-14 07:25:00,0.9,-2.1,30.52,East,82,0.0,3.0,87,0.00,,---,0.00,VWS V14.01,2013-12-14 12:25:00,
2013-12-14 07:26:00,0.9,-2.0,30.52,East,82,0.0,3.0,87,0.00,,---,0.00,VWS V14.01,2013-12-14 12:26:00,
2013-12-14 07:30:00,0.9,-2.1,30.52,NNE,27,3.0,4.0,87,0.00,,---,0.00,VWS V14.01,2013-12-14 12:30:00,
2013-12-14 07:31:00,0.9,-2.0,30.52,NNE,27,3.0,4.0,87,0.00,,---,0.00,VWS V14.01,2013-12-14 12:31:00,
2013-12-14 07:35:00,0.8,-2.2,30.52,NNE,22,1.0,5.0,87,0.00,,---,0.00,VWS V14.01,2013-12-14 12:35:00,
2013-12-14 07:36:00,0.8,-2.2,30.52,NNE,22,1.0,5.0,87,0.00,,---,0.00,VWS V14.01,2013-12-14 12:36:00,
2013-12-14 07:40:00,0.8,-2.2,30.53,ENE,77,0.0,6.0,87,0.00,,---,0.00,VWS V14.01,2013-12-14 12:40:00,
2013-12-14 07:41:00,0.8,-2.2,30.53,ENE,77,0.0,6.0,87,0.00,,---,0.00,VWS V14.01,2013-12-14 12:41:00,
2013-12-14 07:45:00,0.8,-2.2,30.53,East,79,5.0,6.0,87,0.00,,---,0.00,VWS V14.01,2013-12-14 12:45:00,
2013-12-14 07:46:00,0.8,-2.2,30.53,East,79,5.0,6.0,87,0.00,,---,0.00,VWS V14.01,2013-12-14 12:46:00,
2013-12-14 07:50:00,0.6,-2.6,30.53,NE,56,2.0,8.0,86,0.00,,---,0.00,VWS V14.01,2013-12-14 12:50:00,
2013-12-14 07:51:00,0.6,-2.6,30.53,NE,56,2.0,8.0,86,0.00,,---,0.00,VWS V14.01,2013-12-14 12:51:00,
2013-12-14 07:55:00,0.4,-2.5,30.53,NE,53,6.0,6.0,87,0.00,,---,0.00,VWS V14.01,2013-12-14 12:55:00,
2013-12-14 07:56:00,0.4,-2.5,30.53,NE,53,6.0,6.0,87,0.00,,---,0.00,VWS V14.01,2013-12-14 12:56:00,
2013-12-14 08:00:00,0.4,-2.8,30.53,NE,38,1.0,6.0,86,0.00,,---,0.00,VWS V14.01,2013-12-14 13:00:00,
2013-12-14 08:02:00,0.4,-2.8,30.53,NE,38,1.0,6.0,86,0.00,,---,0.00,VWS V14.01,2013-12-14 13:02:00,
2013-12-14 08:05:00,0.4,-2.8,30.54,ENE,60,3.0,5.0,86,0.00,,---,0.00,VWS V14.01,2013-12-14 13:05:00,
2013-12-14 08:10:00,0.2,-3.2,30.55,NE,47,4.0,6.0,85,0.00,,---,0.00,VWS V14.01,2013-12-14 13:10:00,
2013-12-14 08:11:00,0.2,-3.2,30.55,NE,47,4.0,6.0,85,0.00,,---,0.00,VWS V14.01,2013-12-14 13:11:00,
2013-12-14 08:15:00,0.2,-3.2,30.54,NE,52,4.0,4.0,85,0.00,,---,0.00,VWS V14.01,2013-12-14 13:15:00,
2013-12-14 08:16:00,0.2,-3.2,30.54,NE,52,4.0,4.0,85,0.00,,---,0.00,VWS V14.01,2013-12-14 13:16:00,
2013-12-14 08:20:00,0.3,-3.1,30.55,East,86,1.0,4.0,85,0.00,,---,0.00,VWS V14.01,2013-12-14 13:20:00,
2013-12-14 08:21:00,0.3,-3.1,30.55,East,86,1.0,4.0,85,0.00,,---,0.00,VWS V14.01,2013-12-14 13:21:00,
2013-12-14 08:25:00,0.3,-3.1,30.55,NE,51,2.0,3.0,85,0.00,,---,0.00,VWS V14.01,2013-12-14 13:25:00,
2013-12-14 08:26:00,0.3,-3.1,30.55,NE,51,2.0,3.0,85,0.00,,---,0.00,VWS V14.01,2013-12-14 13:26:00,
2013-12-14 08:30:00,0.4,-3.0,30.55,East,86,1.0,3.0,85,0.00,,---,0.00,VWS V14.01,2013-12-14 13:30:00,
2013-12-14 08:31:00,0.4,-3.0,30.55,East,86,1.0,3.0,85,0.00,,---,0.00,VWS V14.01,2013-12-14 13:31:00,
2013-12-14 08:35:00,0.4,-3.0,30.55,ENE,58,4.0,6.0,85,0.00,,---,0.00,VWS V14.01,2013-12-14 13:35:00,
2013-12-14 08:36:00,0.4,-3.0,30.55,ENE,58,4.0,6.0,85,0.00,,---,0.00,VWS V14.01,2013-12-14 13:36:00,
2013-12-14 08:40:00,0.4,-3.0,30.56,NE,41,4.0,4.0,85,0.00,,---,0.00,VWS V14.01,2013-12-14 13:40:00,
2013-12-14 08:41:00,0.4,-3.0,30.56,NE,41,4.0,4.0,85,0.00,,---,0.00,VWS V14.01,2013-12-14 13:41:00,
2013-12-14 08:45:00,0.5,-2.9,30.56,ENE,68,1.0,4.0,85,0.00,,---,0.00,VWS V14.01,2013-12-14 13:45:00,
2013-12-14 08:46:00,0.5,-2.9,30.56,ENE,68,1.0,4.0,85,0.00,,---,0.00,VWS V14.01,2013-12-14 13:46:00,
2013-12-14 08:50:00,0.6,-2.8,30.56,NE,50,1.0,3.0,85,0.00,,---,0.00,VWS V14.01,2013-12-14 13:50:00,
2013-12-14 08:51:00,0.6,-2.8,30.56,NE,50,1.0,3.0,85,0.00,,---,0.00,VWS V14.01,2013-12-14 13:51:00,
2013-12-14 08:55:00,0.6,-2.8,30.57,NE,44,2.0,4.0,85,0.00,,---,0.00,VWS V14.01,2013-12-14 13:55:00,
2013-12-14 08:56:00,0.6,-2.8,30.57,NE,44,2.0,4.0,85,0.00,,---,0.00,VWS V14.01,2013-12-14 13:56:00,
2013-12-14 09:00:00,0.6,-2.8,30.57,ENE,70,2.0,4.0,85,0.00,,---,0.00,VWS V14.01,2013-12-14 14:00:00,
2013-12-14 09:02:00,0.6,-2.8,30.57,ENE,70,2.0,4.0,85,0.00,,---,0.00,VWS V14.01,2013-12-14 14:02:00,
2013-12-14 09:05:00,0.7,-2.7,30.58,East,95,1.0,2.0,85,0.00,,---,0.00,VWS V14.01,2013-12-14 14:05:00,
2013-12-14 09:10:00,0.9,-2.5,30.58,ENE,60,1.0,2.0,85,0.00,,---,0.00,VWS V14.01,2013-12-14 14:10:00,
2013-12-14 09:11:00,0.9,-2.5,30.58,ENE,60,1.0,2.0,85,0.00,,---,0.00,VWS V14.01,2013-12-14 14:11:00,
2013-12-14 09:15:00,0.9,-2.8,30.58,ENE,66,2.0,5.0,84,0.00,,---,0.00,VWS V14.01,2013-12-14 14:15:00,
2013-12-14 09:16:00,0.9,-2.8,30.58,ENE,66,2.0,5.0,84,0.00,,---,0.00,VWS V14.01,2013-12-14 14:16:00,
2013-12-14 09:20:00,0.9,-2.8,30.58,ENE,58,2.0,3.0,84,0.00,,---,0.00,VWS V14.01,2013-12-14 14:20:00,
2013-12-14 09:21:00,0.9,-2.8,30.58,ENE,58,2.0,3.0,84,0.00,,---,0.00,VWS V14.01,2013-12-14 14:21:00,
2013-12-14 09:25:00,0.8,-2.9,30.58,NE,56,2.0,4.0,84,0.00,,---,0.00,VWS V14.01,2013-12-14 14:25:00,
2013-12-14 09:26:00,0.8,-2.9,30.58,NE,56,2.0,4.0,84,0.00,,---,0.00,VWS V14.01,2013-12-14 14:26:00,
2013-12-14 09:30:00,0.8,-2.9,30.58,NE,50,1.0,4.0,84,0.00,,---,0.00,VWS V14.01,2013-12-14 14:30:00,
2013-12-14 09:31:00,0.8,-2.9,30.58,NE,50,1.0,4.0,84,0.00,,---,0.00,VWS V14.01,2013-12-14 14:31:00,
2013-12-14 09:35:00,1.0,-2.4,30.58,ENE,72,0.0,3.0,85,0.00,,---,0.00,VWS V14.01,2013-12-14 14:35:00,
2013-12-14 09:36:00,1.0,-2.5,30.58,ENE,72,0.0,3.0,85,0.00,,---,0.00,VWS V14.01,2013-12-14 14:36:00,
2013-12-14 09:40:00,1.1,-2.3,30.58,East,82,0.0,3.0,85,0.00,,---,0.00,VWS V14.01,2013-12-14 14:40:00,
2013-12-14 09:41:00,1.1,-2.3,30.58,East,82,0.0,3.0,85,0.00,,---,0.00,VWS V14.01,2013-12-14 14:41:00,
2013-12-14 09:45:00,1.2,-2.2,30.58,ENE,70,0.0,3.0,85,0.00,,---,0.00,VWS V14.01,2013-12-14 14:45:00,
2013-12-14 09:46:00,1.2,-2.2,30.58,ENE,70,0.0,3.0,85,0.00,,---,0.00,VWS V14.01,2013-12-14 14:46:00,
2013-12-14 09:50:00,1.3,-2.2,30.58,North,8,0.0,5.0,85,0.00,,---,0.00,VWS V14.01,2013-12-14 14:50:00,
2013-12-14 09:51:00,1.3,-2.2,30.58,North,8,0.0,5.0,85,0.00,,---,0.00,VWS V14.01,2013-12-14 14:51:00,
2013-12-14 09:55:00,1.6,-1.9,30.58,ENE,65,0.0,3.0,85,0.00,,---,0.00,VWS V14.01,2013-12-14 14:55:00,
2013-12-14 09:56:00,1.6,-1.9,30.58,ENE,65,0.0,3.0,85,0.00,,---,0.00,VWS V14.01,2013-12-14 14:56:00,
2013-12-14 10:00:00,1.8,-1.7,30.58,East,89,0.0,3.0,85,0.00,,---,0.00,VWS V14.01,2013-12-14 15:00:00,
2013-12-14 10:01:00,1.8,-1.7,30.58,East,89,0.0,3.0,85,0.00,,---,0.00,VWS V14.01,2013-12-14 15:01:00,
2013-12-14 10:05:00,1.9,-1.6,30.58,NE,41,1.0,3.0,85,0.00,,---,0.00,VWS V14.01,2013-12-14 15:05:00,
2013-12-14 10:06:00,1.9,-1.6,30.58,NE,41,1.0,3.0,85,0.00,,---,0.00,VWS V14.01,2013-12-14 15:06:00,
2013-12-14 10:10:00,1.9,-1.6,30.58,East,90,1.0,3.0,85,0.00,,---,0.00,VWS V14.01,2013-12-14 15:10:00,
2013-12-14 10:11:00,1.9,-1.6,30.58,East,90,1.0,3.0,85,0.00,,---,0.00,VWS V14.01,2013-12-14 15:11:00,
2013-12-14 10:15:00,2.2,-1.3,30.58,ENE,75,0.0,2.0,85,0.00,,---,0.00,VWS V14.01,2013-12-14 15:15:00,
2013-12-14 10:16:00,2.2,-1.3,30.58,ENE,75,0.0,2.0,85,0.00,,---,0.00,VWS V14.01,2013-12-14 15:16:00,
2013-12-14 10:20:00,2.4,-1.1,30.58,NE,41,0.0,2.0,85,0.00,,---,0.00,VWS V14.01,2013-12-14 15:20:00,
2013-12-14 10:21:00,2.4,-1.1,30.58,NE,41,0.0,2.0,85,0.00,,---,0.00,VWS V14.01,2013-12-14 15:21:00,
2013-12-14 10:25:00,2.6,-0.9,30.57,ENE,61,0.0,3.0,85,0.00,,---,0.00,VWS V14.01,2013-12-14 15:25:00,
2013-12-14 10:26:00,2.6,-0.9,30.57,ENE,61,0.0,3.0,85,0.00,,---,0.00,VWS V14.01,2013-12-14 15:26:00,
2013-12-14 10:30:00,2.7,-0.8,30.56,ENE,76,1.0,4.0,85,0.00,,---,0.00,VWS V14.01,2013-12-14 15:30:00,
2013-12-14 10:31:00,2.7,-0.8,30.56,ENE,76,1.0,4.0,85,0.00,,---,0.00,VWS V14.01,2013-12-14 15:31:00,
2013-12-14 10:35:00,2.7,-1.0,30.56,ENE,61,3.0,6.0,84,0.00,,---,0.00,VWS V14.01,2013-12-14 15:35:00,
2013-12-14 10:36:00,2.7,-1.0,30.56,ENE,61,3.0,6.0,84,0.00,,---,0.00,VWS V14.01,2013-12-14 15:36:00,
2013-12-14 10:40:00,3.0,-0.5,30.56,ENE,60,2.0,5.0,85,0.00,,---,0.00,VWS V14.01,2013-12-14 15:40:00,
2013-12-14 10:41:00,3.0,-0.5,30.56,ENE,60,2.0,5.0,85,0.00,,---,0.00,VWS V14.01,2013-12-14 15:41:00,
2013-12-14 10:45:00,3.4,-0.1,30.56,ENE,70,1.0,5.0,85,0.00,,---,0.00,VWS V14.01,2013-12-14 15:45:00,
2013-12-14 10:46:00,3.4,-0.1,30.56,ENE,70,1.0,5.0,85,0.00,,---,0.00,VWS V14.01,2013-12-14 15:46:00,
2013-12-14 10:50:00,3.7,0.2,30.56,NE,50,3.0,3.0,85,0.00,,---,0.00,VWS V14.01,2013-12-14 15:50:00,
2013-12-14 10:51:00,3.7,0.2,30.56,NE,50,3.0,3.0,85,0.00,,---,0.00,VWS V14.01,2013-12-14 15:51:00,
2013-12-14 10:55:00,3.8,0.3,30.55,ESE,104,1.0,5.0,85,0.00,,---,0.00,VWS V14.01,2013-12-14 15:55:00,
2013-12-14 10:57:00,3.8,0.3,30.55,ESE,104,1.0,5.0,85,0.00,,---,0.00,VWS V14.01,2013-12-14 15:57:00,
2013-12-14 11:00:00,4.2,0.7,30.55,ESE,102,4.0,4.0,85,0.00,,---,0.00,VWS V14.01,2013-12-14 16:00:00,
2013-12-14 11:05:00,4.3,0.8,30.55,ENE,76,2.0,6.0,85,0.00,,---,0.00,VWS V14.01,2013-12-14 16:05:00,
2013-12-14 11:06:00,4.3,0.8,30.55,ENE,76,2.0,6.0,85,0.00,,---,0.00,VWS V14.01,2013-12-14 16:06:00,
2013-12-14 11:10:00,4.4,0.9,30.55,ENE,74,4.0,4.0,85,0.00,,---,0.00,VWS V14.01,2013-12-14 16:10:00,
2013-12-14 11:11:00,4.4,0.9,30.55,ENE,74,4.0,4.0,85,0.00,,---,0.00,VWS V14.01,2013-12-14 16:11:00,
2013-12-14 11:15:00,4.6,1.1,30.54,ENE,71,1.0,4.0,85,0.00,,---,0.00,VWS V14.01,2013-12-14 16:15:00,
2013-12-14 11:16:00,4.6,1.1,30.54,ENE,71,1.0,4.0,85,0.00,,---,0.00,VWS V14.01,2013-12-14 16:16:00,
2013-12-14 11:20:00,4.9,1.4,30.54,ENE,72,3.0,6.0,85,0.00,,---,0.00,VWS V14.01,2013-12-14 16:20:00,
2013-12-14 11:21:00,4.9,1.4,30.54,ENE,72,3.0,6.0,85,0.00,,---,0.00,VWS V14.01,2013-12-14 16:21:00,
2013-12-14 11:25:00,4.9,1.1,30.54,East,94,1.0,7.0,84,0.00,,---,0.00,VWS V14.01,2013-12-14 16:25:00,
2013-12-14 11:26:00,4.9,1.1,30.54,East,94,1.0,7.0,84,0.00,,---,0.00,VWS V14.01,2013-12-14 16:26:00,
2013-12-14 11:30:00,5.1,1.6,30.54,ESE,113,4.0,7.0,85,0.00,,---,0.00,VWS V14.01,2013-12-14 16:30:00,
2013-12-14 11:35:00,5.3,1.5,30.53,East,92,3.0,5.0,84,0.00,,---,0.00,VWS V14.01,2013-12-14 16:35:00,
2013-12-14 11:36:00,5.3,1.5,30.53,East,92,3.0,5.0,84,0.00,,---,0.00,VWS V14.01,2013-12-14 16:36:00,
2013-12-14 11:40:00,5.6,2.1,30.53,SSE,155,2.0,5.0,85,0.00,,---,0.00,VWS V14.01,2013-12-14 16:40:00,
2013-12-14 11:45:00,6.3,2.8,30.53,ESE,108,3.0,4.0,85,0.00,,---,0.00,VWS V14.01,2013-12-14 16:45:00,
2013-12-14 11:46:00,6.3,2.8,30.53,ESE,108,3.0,4.0,85,0.00,,---,0.00,VWS V14.01,2013-12-14 16:46:00,
2013-12-14 11:50:00,6.5,2.7,30.52,East,82,3.0,7.0,84,0.00,,---,0.00,VWS V14.01,2013-12-14 16:50:00,
2013-12-14 11:55:00,6.5,2.7,30.52,East,89,3.0,7.0,84,0.00,,---,0.00,VWS V14.01,2013-12-14 16:55:00,
2013-12-14 11:56:00,6.5,2.7,30.52,East,89,3.0,7.0,84,0.00,,---,0.00,VWS V14.01,2013-12-14 16:56:00,
2013-12-14 12:00:00,6.6,2.8,30.52,East,84,5.0,7.0,84,0.00,,---,0.00,VWS V14.01,2013-12-14 17:00:00,
2013-12-14 12:01:00,6.6,2.8,30.52,East,84,5.0,7.0,84,0.00,,---,0.00,VWS V14.01,2013-12-14 17:01:00,
2013-12-14 12:05:00,6.8,3.0,30.52,East,98,5.0,6.0,84,0.00,,---,0.00,VWS V14.01,2013-12-14 17:05:00,
2013-12-14 12:10:00,7.0,3.2,30.52,ENE,78,4.0,6.0,84,0.00,,---,0.00,VWS V14.01,2013-12-14 17:10:00,
2013-12-14 12:11:00,7.0,3.2,30.52,ENE,78,4.0,6.0,84,0.00,,---,0.00,VWS V14.01,2013-12-14 17:11:00,
2013-12-14 12:15:00,7.2,3.4,30.51,ESE,104,4.0,7.0,84,0.00,,---,0.00,VWS V14.01,2013-12-14 17:15:00,
2013-12-14 12:17:00,7.2,3.4,30.51,ESE,104,4.0,7.0,84,0.00,,---,0.00,VWS V14.01,2013-12-14 17:17:00,
2013-12-14 12:20:00,7.3,3.5,30.51,ESE,106,5.0,7.0,84,0.00,,---,0.00,VWS V14.01,2013-12-14 17:20:00,
2013-12-14 12:25:00,7.3,3.5,30.50,East,88,5.0,10.0,84,0.00,,---,0.00,VWS V14.01,2013-12-14 17:25:00,
2013-12-14 12:26:00,7.3,3.5,30.50,East,88,5.0,10.0,84,0.00,,---,0.00,VWS V14.01,2013-12-14 17:26:00,
2013-12-14 12:30:00,7.1,3.3,30.50,East,93,4.0,8.0,84,0.00,,---,0.00,VWS V14.01,2013-12-14 17:30:00,
2013-12-14 12:31:00,7.1,3.3,30.50,East,93,4.0,8.0,84,0.00,,---,0.00,VWS V14.01,2013-12-14 17:31:00,
2013-12-14 12:35:00,7.0,3.5,30.50,ESE,114,6.0,7.0,85,0.00,,---,0.00,VWS V14.01,2013-12-14 17:35:00,
2013-12-14 12:37:00,7.0,3.5,30.50,ESE,114,6.0,7.0,85,0.00,,---,0.00,VWS V14.01,2013-12-14 17:37:00,
2013-12-14 12:40:00,6.9,3.3,30.50,ENE,75,3.0,8.0,85,0.00,,---,0.00,VWS V14.01,2013-12-14 17:40:00,
2013-12-14 12:45:00,7.0,3.7,30.50,ESE,105,3.0,7.0,86,0.00,,---,0.00,VWS V14.01,2013-12-14 17:45:00,
2013-12-14 12:46:00,7.0,3.7,30.50,ESE,105,3.0,7.0,86,0.00,,---,0.00,VWS V14.01,2013-12-14 17:46:00,
2013-12-14 12:50:00,7.2,3.9,30.50,ESE,102,1.0,6.0,86,0.00,,---,0.00,VWS V14.01,2013-12-14 17:50:00,
2013-12-14 12:55:00,6.9,3.3,30.49,ESE,122,5.0,7.0,85,0.00,,---,0.00,VWS V14.01,2013-12-14 17:55:00,
2013-12-14 12:56:00,6.9,3.3,30.49,ESE,122,5.0,7.0,85,0.00,,---,0.00,VWS V14.01,2013-12-14 17:56:00,
2013-12-14 13:00:00,6.9,3.3,30.50,East,98,4.0,6.0,85,0.00,,---,0.00,VWS V14.01,2013-12-14 18:00:00,
2013-12-14 13:01:00,6.9,3.3,30.50,East,98,4.0,6.0,85,0.00,,---,0.00,VWS V14.01,2013-12-14 18:01:00,
2013-12-14 13:05:00,7.1,3.8,30.49,ESE,122,4.0,6.0,86,0.00,,---,0.00,VWS V14.01,2013-12-14 18:05:00,
2013-12-14 13:10:00,7.3,4.0,30.49,ESE,105,4.0,6.0,86,0.00,,---,0.00,VWS V14.01,2013-12-14 18:10:00,
2013-12-14 13:11:00,7.3,4.0,30.49,ESE,105,4.0,6.0,86,0.00,,---,0.00,VWS V14.01,2013-12-14 18:11:00,
2013-12-14 13:15:00,7.5,3.9,30.49,ESE,111,5.0,6.0,85,0.00,,---,0.00,VWS V14.01,2013-12-14 18:15:00,
2013-12-14 13:16:00,7.5,3.9,30.49,ESE,111,5.0,6.0,85,0.00,,---,0.00,VWS V14.01,2013-12-14 18:16:00,
2013-12-14 13:20:00,7.6,4.0,30.48,ESE,107,2.0,6.0,85,0.00,,---,0.00,VWS V14.01,2013-12-14 18:20:00,
2013-12-14 13:21:00,7.6,4.0,30.48,ESE,107,2.0,6.0,85,0.00,,---,0.00,VWS V14.01,2013-12-14 18:21:00,
2013-12-14 13:25:00,7.6,4.0,30.48,ESE,107,3.0,7.0,85,0.00,,---,0.00,VWS V14.01,2013-12-14 18:25:00,
2013-12-14 13:30:00,7.3,3.8,30.49,East,98,4.0,7.0,85,0.00,,---,0.00,VWS V14.01,2013-12-14 18:30:00,
2013-12-14 13:31:00,7.3,3.8,30.49,East,98,4.0,7.0,85,0.00,,---,0.00,VWS V14.01,2013-12-14 18:31:00,
2013-12-14 13:35:00,7.0,3.5,30.48,ESE,105,2.0,6.0,85,0.00,,---,0.00,VWS V14.01,2013-12-14 18:35:00,
2013-12-14 13:36:00,7.0,3.5,30.48,ESE,105,2.0,6.0,85,0.00,,---,0.00,VWS V14.01,2013-12-14 18:36:00,
2013-12-14 13:40:00,6.7,3.2,30.48,SE,135,3.0,6.0,85,0.00,,---,0.00,VWS V14.01,2013-12-14 18:40:00,
2013-12-14 13:45:00,6.7,3.4,30.48,East,92,4.0,5.0,86,0.00,,---,0.00,VWS V14.01,2013-12-14 18:45:00,
2013-12-14 13:46:00,6.7,3.4,30.48,East,92,4.0,5.0,86,0.00,,---,0.00,VWS V14.01,2013-12-14 18:46:00,
2013-12-14 13:50:00,6.5,3.2,30.47,East,94,4.0,7.0,86,0.00,,---,0.00,VWS V14.01,2013-12-14 18:50:00,
2013-12-14 13:55:00,6.1,2.8,30.47,East,91,6.0,8.0,86,0.00,,---,0.00,VWS V14.01,2013-12-14 18:55:00,
2013-12-14 13:56:00,6.1,2.8,30.47,East,91,6.0,8.0,86,0.00,,---,0.00,VWS V14.01,2013-12-14 18:56:00,
2013-12-14 14:00:00,6.1,3.1,30.47,East,91,4.0,7.0,87,0.00,,---,0.00,VWS V14.01,2013-12-14 19:00:00,
2013-12-14 14:02:00,6.1,3.1,30.47,East,91,4.0,7.0,87,0.00,,---,0.00,VWS V14.01,2013-12-14 19:02:00,
2013-12-14 14:05:00,6.1,3.1,30.46,ESE,102,2.0,5.0,87,0.00,,---,0.00,VWS V14.01,2013-12-14 19:05:00,
2013-12-14 14:10:00,6.2,3.2,30.45,East,92,3.0,6.0,87,0.00,,---,0.00,VWS V14.01,2013-12-14 19:10:00,
2013-12-14 14:11:00,6.2,3.2,30.45,East,92,3.0,6.0,87,0.00,,---,0.00,VWS V14.01,2013-12-14 19:11:00,
2013-12-14 14:15:00,6.0,3.0,30.45,East,89,4.0,8.0,87,0.00,,---,0.00,VWS V14.01,2013-12-14 19:15:00,
2013-12-14 14:16:00,6.0,3.0,30.45,East,89,4.0,8.0,87,0.00,,---,0.00,VWS V14.01,2013-12-14 19:16:00,
2013-12-14 14:20:00,5.9,2.9,30.45,SE,124,3.0,7.0,87,0.00,,---,0.00,VWS V14.01,2013-12-14 19:20:00,
2013-12-14 14:21:00,5.9,2.9,30.45,SE,124,3.0,7.0,87,0.00,,---,0.00,VWS V14.01,2013-12-14 19:21:00,
2013-12-14 14:25:00,6.1,3.3,30.45,East,92,3.0,5.0,88,0.00,,---,0.00,VWS V14.01,2013-12-14 19:25:00,
2013-12-14 14:26:00,6.1,3.3,30.45,East,92,3.0,5.0,88,0.00,,---,0.00,VWS V14.01,2013-12-14 19:26:00,
2013-12-14 14:30:00,6.2,3.4,30.45,ENE,69,3.0,6.0,88,0.00,,---,0.00,VWS V14.01,2013-12-14 19:30:00,
2013-12-14 14:35:00,6.4,3.6,30.45,East,82,4.0,6.0,88,0.00,,---,0.00,VWS V14.01,2013-12-14 19:35:00,
2013-12-14 14:36:00,6.4,3.6,30.45,East,82,4.0,6.0,88,0.00,,---,0.00,VWS V14.01,2013-12-14 19:36:00,
2013-12-14 14:40:00,6.5,3.7,30.45,ESE,114,6.0,7.0,88,0.00,,---,0.00,VWS V14.01,2013-12-14 19:40:00,
2013-12-14 14:41:00,6.5,3.7,30.45,ESE,114,6.0,7.0,88,0.00,,---,0.00,VWS V14.01,2013-12-14 19:41:00,
2013-12-14 14:45:00,6.5,3.7,30.45,ESE,116,3.0,8.0,88,0.00,,---,0.00,VWS V14.01,2013-12-14 19:45:00,
2013-12-14 14:46:00,6.5,3.7,30.45,ESE,116,3.0,8.0,88,0.00,,---,0.00,VWS V14.01,2013-12-14 19:46:00,
2013-12-14 14:50:00,6.6,3.8,30.45,ENE,72,3.0,7.0,88,0.00,,---,0.00,VWS V14.01,2013-12-14 19:50:00,
2013-12-14 14:51:00,6.6,3.8,30.45,ENE,72,3.0,7.0,88,0.00,,---,0.00,VWS V14.01,2013-12-14 19:51:00,
2013-12-14 14:55:00,6.7,3.9,30.44,East,85,6.0,9.0,88,0.00,,---,0.00,VWS V14.01,2013-12-14 19:55:00,
2013-12-14 14:56:00,6.7,3.9,30.44,East,85,6.0,9.0,88,0.00,,---,0.00,VWS V14.01,2013-12-14 19:56:00,
2013-12-14 15:00:00,6.7,3.9,30.44,ESE,120,3.0,9.0,88,0.00,,---,0.00,VWS V14.01,2013-12-14 20:00:00,
2013-12-14 15:01:00,6.7,3.9,30.44,ESE,120,3.0,9.0,88,0.00,,---,0.00,VWS V14.01,2013-12-14 20:01:00,
2013-12-14 15:05:00,6.7,3.9,30.44,East,90,5.0,7.0,88,0.00,,---,0.00,VWS V14.01,2013-12-14 20:05:00,
2013-12-14 15:10:00,6.8,4.0,30.44,East,88,5.0,9.0,88,0.00,,---,0.00,VWS V14.01,2013-12-14 20:10:00,
2013-12-14 15:11:00,6.8,4.0,30.44,East,88,5.0,9.0,88,0.00,,---,0.00,VWS V14.01,2013-12-14 20:11:00,
2013-12-14 15:15:00,6.9,4.3,30.43,East,97,4.0,9.0,89,0.00,,---,0.00,VWS V14.01,2013-12-14 20:15:00,
2013-12-14 15:16:00,6.9,4.3,30.43,East,97,4.0,9.0,89,0.00,,---,0.00,VWS V14.01,2013-12-14 20:16:00,
2013-12-14 15:20:00,6.8,4.2,30.43,ESE,116,3.0,10.0,89,0.00,,---,0.00,VWS V14.01,2013-12-14 20:20:00,
2013-12-14 15:21:00,6.8,4.2,30.43,ESE,116,3.0,10.0,89,0.00,,---,0.00,VWS V14.01,2013-12-14 20:21:00,
2013-12-14 15:25:00,6.8,4.0,30.43,ESE,102,9.0,9.0,88,0.00,,---,0.00,VWS V14.01,2013-12-14 20:25:00,
2013-12-14 15:26:00,6.8,4.0,30.43,ESE,102,9.0,9.0,88,0.00,,---,0.00,VWS V14.01,2013-12-14 20:26:00,
2013-12-14 15:30:00,6.6,3.8,30.42,SE,127,6.0,10.0,88,0.00,,---,0.00,VWS V14.01,2013-12-14 20:30:00,
2013-12-14 15:31:00,6.6,3.8,30.42,SE,127,6.0,10.0,88,0.00,,---,0.00,VWS V14.01,2013-12-14 20:31:00,
2013-12-14 15:35:00,6.5,3.7,30.42,ESE,107,6.0,9.0,88,0.00,,---,0.00,VWS V14.01,2013-12-14 20:35:00,
2013-12-14 15:36:00,6.5,3.7,30.42,ESE,107,6.0,9.0,88,0.00,,---,0.00,VWS V14.01,2013-12-14 20:36:00,
2013-12-14 15:40:00,6.3,3.8,30.41,East,90,4.0,7.0,89,0.00,,---,0.00,VWS V14.01,2013-12-14 20:40:00,
2013-12-14 15:41:00,6.3,3.8,30.41,East,90,4.0,7.0,89,0.00,,---,0.00,VWS V14.01,2013-12-14 20:41:00,
2013-12-14 15:45:00,6.1,3.3,30.41,East,86,6.0,9.0,88,0.00,,---,0.00,VWS V14.01,2013-12-14 20:45:00,
2013-12-14 15:46:00,6.1,3.3,30.41,East,86,6.0,9.0,88,0.00,,---,0.00,VWS V14.01,2013-12-14 20:46:00,
2013-12-14 15:50:00,5.9,3.1,30.40,East,86,4.0,7.0,88,0.00,,---,0.00,VWS V14.01,2013-12-14 20:50:00,
2013-12-14 15:55:00,5.6,2.8,30.40,ENE,72,4.0,7.0,88,0.00,,---,0.00,VWS V14.01,2013-12-14 20:55:00,
2013-12-14 15:56:00,5.6,2.8,30.40,ENE,72,4.0,7.0,88,0.00,,---,0.00,VWS V14.01,2013-12-14 20:56:00,
2013-12-14 16:00:00,5.5,3.0,30.40,East,98,4.0,7.0,89,0.00,,---,0.00,VWS V14.01,2013-12-14 21:00:00,
2013-12-14 16:01:00,5.5,3.0,30.40,East,98,4.0,7.0,89,0.00,,---,0.00,VWS V14.01,2013-12-14 21:01:00,
2013-12-14 16:05:00,5.5,3.0,30.40,SE,128,2.0,6.0,89,0.00,,---,0.00,VWS V14.01,2013-12-14 21:05:00,
2013-12-14 16:06:00,5.5,3.0,30.40,SE,128,2.0,6.0,89,0.00,,---,0.00,VWS V14.01,2013-12-14 21:06:00,
2013-12-14 16:10:00,5.4,2.9,30.40,ENE,76,5.0,7.0,89,0.00,,---,0.00,VWS V14.01,2013-12-14 21:10:00,
2013-12-14 16:11:00,5.4,2.9,30.40,ENE,76,5.0,7.0,89,0.00,,---,0.00,VWS V14.01,2013-12-14 21:11:00,
2013-12-14 16:15:00,5.4,2.9,30.40,East,86,6.0,8.0,89,0.00,,---,0.00,VWS V14.01,2013-12-14 21:15:00,
2013-12-14 16:16:00,5.4,2.9,30.40,East,86,6.0,8.0,89,0.00,,---,0.00,VWS V14.01,2013-12-14 21:16:00,
2013-12-14 16:20:00,5.2,2.7,30.40,ENE,76,2.0,9.0,89,0.00,,---,0.00,VWS V14.01,2013-12-14 21:20:00,
2013-12-14 16:21:00,5.2,2.7,30.40,ENE,76,2.0,9.0,89,0.00,,---,0.00,VWS V14.01,2013-12-14 21:21:00,
2013-12-14 16:25:00,5.2,2.7,30.40,East,94,6.0,6.0,89,0.00,,---,0.00,VWS V14.01,2013-12-14 21:25:00,
2013-12-14 16:26:00,5.2,2.7,30.40,East,94,6.0,6.0,89,0.00,,---,0.00,VWS V14.01,2013-12-14 21:26:00,
2013-12-14 16:30:00,5.1,2.6,30.40,ENE,77,6.0,7.0,89,0.00,,---,0.00,VWS V14.01,2013-12-14 21:30:00,
2013-12-14 16:31:00,5.1,2.6,30.40,ENE,77,6.0,7.0,89,0.00,,---,0.00,VWS V14.01,2013-12-14 21:31:00,
2013-12-14 16:35:00,5.2,2.7,30.40,ESE,108,4.0,7.0,89,0.00,,---,0.00,VWS V14.01,2013-12-14 21:35:00,
2013-12-14 16:36:00,5.2,2.7,30.40,ESE,108,4.0,7.0,89,0.00,,---,0.00,VWS V14.01,2013-12-14 21:36:00,
2013-12-14 16:40:00,5.2,2.7,30.40,ESE,107,6.0,7.0,89,0.00,,---,0.00,VWS V14.01,2013-12-14 21:40:00,
2013-12-14 16:41:00,5.2,2.7,30.40,ESE,107,6.0,7.0,89,0.00,,---,0.00,VWS V14.01,2013-12-14 21:41:00,
2013-12-14 16:45:00,5.2,2.7,30.39,East,97,6.0,8.0,89,0.00,,---,0.00,VWS V14.01,2013-12-14 21:45:00,
2013-12-14 16:46:00,5.2,2.7,30.39,East,97,6.0,8.0,89,0.00,,---,0.00,VWS V14.01,2013-12-14 21:46:00,
2013-12-14 16:50:00,5.2,2.7,30.38,East,98,6.0,8.0,89,0.00,,---,0.00,VWS V14.01,2013-12-14 21:50:00,
2013-12-14 16:51:00,5.2,2.7,30.38,East,98,6.0,8.0,89,0.00,,---,0.00,VWS V14.01,2013-12-14 21:51:00,
2013-12-14 16:55:00,5.2,2.7,30.38,ESE,117,5.0,8.0,89,0.00,,---,0.00,VWS V14.01,2013-12-14 21:55:00,
2013-12-14 16:56:00,5.2,2.7,30.38,ESE,117,5.0,8.0,89,0.00,,---,0.00,VWS V14.01,2013-12-14 21:56:00,
2013-12-14 17:00:00,5.2,2.7,30.37,ESE,111,7.0,9.0,89,0.00,,---,0.00,VWS V14.01,2013-12-14 22:00:00,
2013-12-14 17:01:00,5.2,2.7,30.37,ESE,111,7.0,9.0,89,0.00,,---,0.00,VWS V14.01,2013-12-14 22:01:00,
2013-12-14 17:05:00,5.3,2.8,30.37,ESE,120,5.0,9.0,89,0.00,,---,0.00,VWS V14.01,2013-12-14 22:05:00,
2013-12-14 17:06:00,5.3,2.8,30.37,ESE,120,5.0,9.0,89,0.00,,---,0.00,VWS V14.01,2013-12-14 22:06:00,
2013-12-14 17:10:00,5.4,2.9,30.37,ESE,117,4.0,9.0,89,0.00,,---,0.00,VWS V14.01,2013-12-14 22:10:00,
2013-12-14 17:11:00,5.4,2.9,30.37,ESE,117,4.0,9.0,89,0.00,,---,0.00,VWS V14.01,2013-12-14 22:11:00,
2013-12-14 17:15:00,5.4,2.9,30.37,SE,127,4.0,8.0,89,0.00,,---,0.00,VWS V14.01,2013-12-14 22:15:00,
2013-12-14 17:16:00,5.4,2.9,30.37,SE,127,4.0,8.0,89,0.00,,---,0.00,VWS V14.01,2013-12-14 22:16:00,
2013-12-14 17:20:00,5.4,2.9,30.37,ESE,106,6.0,11.0,89,0.00,,---,0.00,VWS V14.01,2013-12-14 22:20:00,
2013-12-14 17:21:00,5.4,2.9,30.37,ESE,106,6.0,11.0,89,0.00,,---,0.00,VWS V14.01,2013-12-14 22:21:00,
2013-12-14 17:25:00,5.3,2.8,30.36,East,94,7.0,10.0,89,0.00,,---,0.00,VWS V14.01,2013-12-14 22:25:00,
2013-12-14 17:26:00,5.3,2.8,30.36,East,94,7.0,10.0,89,0.00,,---,0.00,VWS V14.01,2013-12-14 22:26:00,
2013-12-14 17:30:00,5.2,2.7,30.36,ESE,115,4.0,10.0,89,0.00,,---,0.00,VWS V14.01,2013-12-14 22:30:00,
2013-12-14 17:31:00,5.2,2.7,30.36,ESE,115,4.0,10.0,89,0.00,,---,0.00,VWS V14.01,2013-12-14 22:31:00,
2013-12-14 17:35:00,5.2,2.7,30.36,ESE,110,4.0,9.0,89,0.00,,---,0.00,VWS V14.01,2013-12-14 22:35:00,
2013-12-14 17:36:00,5.2,2.7,30.36,ESE,110,4.0,9.0,89,0.00,,---,0.00,VWS V14.01,2013-12-14 22:36:00,
2013-12-14 17:40:00,5.1,2.6,30.35,ESE,107,7.0,12.0,89,0.00,,---,0.00,VWS V14.01,2013-12-14 22:40:00,
2013-12-14 17:41:00,5.1,2.6,30.35,ESE,107,7.0,12.0,89,0.00,,---,0.00,VWS V14.01,2013-12-14 22:41:00,
2013-12-14 17:45:00,5.1,2.6,30.35,East,96,7.0,13.0,89,0.00,,---,0.00,VWS V14.01,2013-12-14 22:45:00,
2013-12-14 17:46:00,5.1,2.6,30.35,East,96,7.0,13.0,89,0.00,,---,0.00,VWS V14.01,2013-12-14 22:46:00,
2013-12-14 17:50:00,5.1,2.6,30.35,ESE,112,8.0,12.0,89,0.00,,---,0.00,VWS V14.01,2013-12-14 22:50:00,
2013-12-14 17:51:00,5.1,2.6,30.35,ESE,112,8.0,12.0,89,0.00,,---,0.00,VWS V14.01,2013-12-14 22:51:00,
2013-12-14 17:55:00,5.2,2.9,30.35,East,98,5.0,11.0,90,0.00,,---,0.00,VWS V14.01,2013-12-14 22:55:00,
2013-12-14 17:56:00,5.2,2.9,30.35,East,98,5.0,11.0,90,0.00,,---,0.00,VWS V14.01,2013-12-14 22:56:00,
2013-12-14 18:00:00,5.3,3.0,30.35,ESE,103,7.0,10.0,90,0.00,,---,0.00,VWS V14.01,2013-12-14 23:00:00,
2013-12-14 18:01:00,5.3,3.0,30.35,ESE,103,7.0,10.0,90,0.00,,---,0.00,VWS V14.01,2013-12-14 23:01:00,
2013-12-14 18:05:00,5.4,3.1,30.34,East,88,10.0,12.0,90,0.00,,---,0.00,VWS V14.01,2013-12-14 23:05:00,
2013-12-14 18:10:00,5.5,3.2,30.34,East,98,5.0,10.0,90,0.00,,---,0.00,VWS V14.01,2013-12-14 23:10:00,
2013-12-14 18:11:00,5.5,3.2,30.34,East,98,5.0,10.0,90,0.00,,---,0.00,VWS V14.01,2013-12-14 23:11:00,
2013-12-14 18:15:00,5.6,3.3,30.35,ESE,104,6.0,12.0,90,0.00,,---,0.00,VWS V14.01,2013-12-14 23:15:00,
2013-12-14 18:16:00,5.6,3.3,30.35,ESE,104,6.0,12.0,90,0.00,,---,0.00,VWS V14.01,2013-12-14 23:16:00,
2013-12-14 18:20:00,5.7,3.4,30.35,ESE,110,5.0,13.0,90,0.00,,---,0.00,VWS V14.01,2013-12-14 23:20:00,
2013-12-14 18:21:00,5.7,3.4,30.35,ESE,110,5.0,13.0,90,0.00,,---,0.00,VWS V14.01,2013-12-14 23:21:00,
2013-12-14 18:25:00,5.8,3.5,30.34,ESE,117,7.0,13.0,90,0.00,,---,0.00,VWS V14.01,2013-12-14 23:25:00,
2013-12-14 18:26:00,5.8,3.5,30.34,ESE,117,7.0,13.0,90,0.00,,---,0.00,VWS V14.01,2013-12-14 23:26:00,
2013-12-14 18:30:00,5.9,3.6,30.34,ESE,106,7.0,14.0,90,0.00,,---,0.00,VWS V14.01,2013-12-14 23:30:00,
2013-12-14 18:31:00,5.9,3.6,30.34,ESE,106,7.0,14.0,90,0.00,,---,0.00,VWS V14.01,2013-12-14 23:31:00,
2013-12-14 18:35:00,6.1,3.8,30.33,SE,127,11.0,13.0,90,0.00,,---,0.00,VWS V14.01,2013-12-14 23:35:00,
2013-12-14 18:36:00,6.1,3.8,30.33,SE,127,11.0,13.0,90,0.00,,---,0.00,VWS V14.01,2013-12-14 23:36:00,
2013-12-14 18:40:00,6.2,3.9,30.33,SE,128,10.0,11.0,90,0.00,,---,0.00,VWS V14.01,2013-12-14 23:40:00,
2013-12-14 18:41:00,6.2,3.9,30.33,SE,128,10.0,11.0,90,0.00,,---,0.00,VWS V14.01,2013-12-14 23:41:00,
2013-12-14 18:45:00,6.3,4.0,30.33,ESE,117,8.0,15.0,90,0.00,,---,0.00,VWS V14.01,2013-12-14 23:45:00,
2013-12-14 18:50:00,6.4,4.1,30.32,SE,141,5.0,14.0,90,0.00,,---,0.00,VWS V14.01,2013-12-14 23:50:00,
2013-12-14 18:51:00,6.4,4.1,30.32,SE,141,5.0,14.0,90,0.00,,---,0.00,VWS V14.01,2013-12-14 23:51:00,
2013-12-14 18:55:00,6.6,4.3,30.32,ESE,112,4.0,16.0,90,0.00,,---,0.00,VWS V14.01,2013-12-14 23:55:00,
2013-12-14 18:56:00,6.6,4.3,30.32,ESE,112,4.0,16.0,90,0.00,,---,0.00,VWS V14.01,2013-12-14 23:56:00,
2013-12-14 19:00:00,6.7,4.4,30.32,ESE,110,5.0,13.0,90,0.00,,---,0.00,VWS V14.01,2013-12-15 00:00:00,
2013-12-14 19:01:00,6.7,4.4,30.32,ESE,110,5.0,13.0,90,0.00,,---,0.00,VWS V14.01,2013-12-15 00:01:00,
2013-12-14 19:05:00,6.8,4.5,30.31,SE,128,11.0,15.0,90,0.00,,---,0.00,VWS V14.01,2013-12-15 00:05:00,
2013-12-14 19:06:00,6.8,4.5,30.31,SE,128,11.0,15.0,90,0.00,,---,0.00,VWS V14.01,2013-12-15 00:06:00,
2013-12-14 19:10:00,6.9,4.6,30.31,East,98,8.0,14.0,90,0.00,,---,0.00,VWS V14.01,2013-12-15 00:10:00,
2013-12-14 19:11:00,6.9,4.6,30.31,East,98,8.0,14.0,90,0.00,,---,0.00,VWS V14.01,2013-12-15 00:11:00,
2013-12-14 19:15:00,7.0,4.7,30.31,ESE,102,14.0,15.0,90,0.00,,---,0.00,VWS V14.01,2013-12-15 00:15:00,
2013-12-14 19:16:00,7.0,4.7,30.31,ESE,102,14.0,15.0,90,0.00,,---,0.00,VWS V14.01,2013-12-15 00:16:00,
2013-12-14 19:20:00,7.1,4.8,30.30,ESE,110,10.0,16.0,90,0.00,,---,0.00,VWS V14.01,2013-12-15 00:20:00,
2013-12-14 19:21:00,7.1,4.8,30.30,ESE,110,10.0,16.0,90,0.00,,---,0.00,VWS V14.01,2013-12-15 00:21:00,
2013-12-14 19:25:00,7.1,4.8,30.30,ESE,121,9.0,13.0,90,0.00,,---,0.00,VWS V14.01,2013-12-15 00:25:00,
2013-12-14 19:26:00,7.1,4.8,30.30,ESE,121,9.0,13.0,90,0.00,,---,0.00,VWS V14.01,2013-12-15 00:26:00,
2013-12-14 19:30:00,7.2,4.9,30.30,SE,131,5.0,13.0,90,0.00,,---,0.00,VWS V14.01,2013-12-15 00:30:00,
2013-12-14 19:31:00,7.2,4.9,30.30,SE,131,5.0,13.0,90,0.00,,---,0.00,VWS V14.01,2013-12-15 00:31:00,
2013-12-14 19:35:00,7.3,5.0,30.29,SE,126,9.0,17.0,90,0.00,,---,0.00,VWS V14.01,2013-12-15 00:35:00,
2013-12-14 19:36:00,7.3,5.0,30.29,SE,126,9.0,17.0,90,0.00,,---,0.00,VWS V14.01,2013-12-15 00:36:00,
2013-12-14 19:40:00,7.3,5.0,30.28,ESE,111,11.0,14.0,90,0.00,,---,0.00,VWS V14.01,2013-12-15 00:40:00,
2013-12-14 19:41:00,7.3,5.0,30.28,ESE,111,11.0,14.0,90,0.00,,---,0.00,VWS V14.01,2013-12-15 00:41:00,
2013-12-14 19:45:00,7.4,5.1,30.28,ESE,110,7.0,13.0,90,0.00,,---,0.00,VWS V14.01,2013-12-15 00:45:00,
2013-12-14 19:46:00,7.4,5.1,30.28,ESE,110,7.0,13.0,90,0.00,,---,0.00,VWS V14.01,2013-12-15 00:46:00,
2013-12-14 19:50:00,7.5,5.2,30.28,SE,139,9.0,13.0,90,0.00,,---,0.00,VWS V14.01,2013-12-15 00:50:00,
2013-12-14 19:51:00,7.5,5.2,30.28,SE,139,9.0,13.0,90,0.00,,---,0.00,VWS V14.01,2013-12-15 00:51:00,
2013-12-14 19:55:00,7.6,5.3,30.28,East,87,11.0,13.0,90,0.00,,---,0.00,VWS V14.01,2013-12-15 00:55:00,
2013-12-14 19:56:00,7.6,5.3,30.28,East,87,11.0,13.0,90,0.00,,---,0.00,VWS V14.01,2013-12-15 00:56:00,
2013-12-14 20:00:00,7.7,5.4,30.28,ESE,121,8.0,14.0,90,0.00,,---,0.00,VWS V14.01,2013-12-15 01:00:00,
2013-12-14 20:01:00,7.7,5.4,30.28,ESE,121,8.0,14.0,90,0.00,,---,0.00,VWS V14.01,2013-12-15 01:01:00,
2013-12-14 20:05:00,7.7,5.4,30.27,ESE,117,8.0,15.0,90,0.00,,---,0.00,VWS V14.01,2013-12-15 01:05:00,
2013-12-14 20:10:00,7.8,5.5,30.26,ESE,121,7.0,15.0,90,0.00,,---,0.00,VWS V14.01,2013-12-15 01:10:00,
2013-12-14 20:11:00,7.8,5.5,30.26,ESE,121,7.0,15.0,90,0.00,,---,0.00,VWS V14.01,2013-12-15 01:11:00,
2013-12-14 20:15:00,7.8,5.5,30.26,East,98,9.0,11.0,90,0.00,,---,0.00,VWS V14.01,2013-12-15 01:15:00,
2013-12-14 20:16:00,7.8,5.5,30.26,East,98,9.0,11.0,90,0.00,,---,0.00,VWS V14.01,2013-12-15 01:16:00,
2013-12-14 20:20:00,7.9,5.6,30.26,SSE,150,9.0,14.0,90,0.00,,---,0.00,VWS V14.01,2013-12-15 01:20:00,
2013-12-14 20:21:00,7.9,5.6,30.26,SSE,150,9.0,14.0,90,0.00,,---,0.00,VWS V14.01,2013-12-15 01:21:00,
2013-12-14 20:25:00,8.0,5.7,30.26,ESE,117,7.0,11.0,90,0.00,,---,0.00,VWS V14.01,2013-12-15 01:25:00,
2013-12-14 20:30:00,8.0,5.7,30.25,ESE,113,7.0,12.0,90,0.00,,---,0.00,VWS V14.01,2013-12-15 01:30:00,
2013-12-14 20:31:00,8.0,5.7,30.25,ESE,113,7.0,12.0,90,0.00,,---,0.00,VWS V14.01,2013-12-15 01:31:00,
2013-12-14 20:35:00,8.1,5.8,30.25,ESE,110,12.0,12.0,90,0.00,,---,0.00,VWS V14.01,2013-12-15 01:35:00,
2013-12-14 20:36:00,8.1,5.8,30.25,ESE,110,12.0,12.0,90,0.00,,---,0.00,VWS V14.01,2013-12-15 01:36:00,
2013-12-14 20:40:00,8.1,5.8,30.25,SE,136,8.0,14.0,90,0.00,,---,0.00,VWS V14.01,2013-12-15 01:40:00,
2013-12-14 20:41:00,8.1,5.8,30.25,SE,136,8.0,14.0,90,0.00,,---,0.00,VWS V14.01,2013-12-15 01:41:00,
2013-12-14 20:45:00,8.2,5.9,30.25,ESE,118,8.0,10.0,90,0.00,,---,0.00,VWS V14.01,2013-12-15 01:45:00,
2013-12-14 20:46:00,8.2,5.9,30.25,ESE,118,8.0,10.0,90,0.00,,---,0.00,VWS V14.01,2013-12-15 01:46:00,
2013-12-14 20:50:00,8.3,6.2,30.26,ESE,122,5.0,11.0,91,0.00,,---,0.00,VWS V14.01,2013-12-15 01:50:00,
2013-12-14 20:51:00,8.3,6.2,30.26,ESE,122,5.0,11.0,91,0.00,,---,0.00,VWS V14.01,2013-12-15 01:51:00,
2013-12-14 20:55:00,8.4,6.3,30.25,ESE,117,10.0,12.0,91,0.00,,---,0.00,VWS V14.01,2013-12-15 01:55:00,
2013-12-14 20:56:00,8.4,6.3,30.25,ESE,117,10.0,12.0,91,0.00,,---,0.00,VWS V14.01,2013-12-15 01:56:00,
2013-12-14 21:00:00,8.5,6.4,30.25,SE,136,8.0,13.0,91,0.00,,---,0.00,VWS V14.01,2013-12-15 02:00:00,
2013-12-14 21:05:00,8.6,6.5,30.24,ESE,112,7.0,11.0,91,0.00,,---,0.00,VWS V14.01,2013-12-15 02:05:00,
2013-12-14 21:06:00,8.6,6.5,30.24,ESE,112,7.0,11.0,91,0.00,,---,0.00,VWS V14.01,2013-12-15 02:06:00,
2013-12-14 21:10:00,8.7,6.6,30.24,ESE,112,5.0,14.0,91,0.00,,---,0.00,VWS V14.01,2013-12-15 02:10:00,
2013-12-14 21:11:00,8.7,6.6,30.24,ESE,112,5.0,14.0,91,0.00,,---,0.00,VWS V14.01,2013-12-15 02:11:00,
2013-12-14 21:15:00,8.8,6.7,30.23,ESE,119,7.0,11.0,91,0.00,,---,0.00,VWS V14.01,2013-12-15 02:15:00,
2013-12-14 21:16:00,8.8,6.7,30.23,ESE,119,7.0,11.0,91,0.00,,---,0.00,VWS V14.01,2013-12-15 02:16:00,
2013-12-14 21:20:00,8.9,6.8,30.23,SE,124,6.0,11.0,91,0.00,,---,0.00,VWS V14.01,2013-12-15 02:20:00,
2013-12-14 21:21:00,8.9,6.8,30.23,SE,124,6.0,11.0,91,0.00,,---,0.00,VWS V14.01,2013-12-15 02:21:00,
2013-12-14 21:25:00,9.1,7.0,30.22,East,98,5.0,12.0,91,0.00,,---,0.00,VWS V14.01,2013-12-15 02:25:00,
2013-12-14 21:26:00,9.1,7.0,30.22,East,98,5.0,12.0,91,0.00,,---,0.00,VWS V14.01,2013-12-15 02:26:00,
2013-12-14 21:30:00,9.2,7.1,30.22,East,97,7.0,12.0,91,0.00,,---,0.00,VWS V14.01,2013-12-15 02:30:00,
2013-12-14 21:31:00,9.2,7.1,30.22,East,97,7.0,12.0,91,0.00,,---,0.00,VWS V14.01,2013-12-15 02:31:00,
2013-12-14 21:35:00,9.4,7.3,30.22,ESE,104,9.0,13.0,91,0.00,,---,0.00,VWS V14.01,2013-12-15 02:35:00,
2013-12-14 21:36:00,9.4,7.3,30.22,ESE,104,9.0,13.0,91,0.00,,---,0.00,VWS V14.01,2013-12-15 02:36:00,
2013-12-14 21:40:00,9.4,7.3,30.20,East,101,6.0,10.0,91,0.00,,---,0.00,VWS V14.01,2013-12-15 02:40:00,
2013-12-14 21:41:00,9.4,7.3,30.20,East,101,6.0,10.0,91,0.00,,---,0.00,VWS V14.01,2013-12-15 02:41:00,
2013-12-14 21:45:00,9.7,7.6,30.20,East,98,9.0,12.0,91,0.00,,---,0.00,VWS V14.01,2013-12-15 02:45:00,
2013-12-14 21:46:00,9.7,7.6,30.20,East,98,9.0,12.0,91,0.00,,---,0.00,VWS V14.01,2013-12-15 02:46:00,
2013-12-14 21:50:00,9.9,7.8,30.19,SE,132,6.0,14.0,91,0.00,,---,0.00,VWS V14.01,2013-12-15 02:50:00,
2013-12-14 21:51:00,9.9,7.8,30.19,SE,132,6.0,14.0,91,0.00,,---,0.00,VWS V14.01,2013-12-15 02:51:00,
2013-12-14 21:55:00,10.1,8.0,30.19,ESE,102,7.0,14.0,91,0.00,,---,0.00,VWS V14.01,2013-12-15 02:55:00,
2013-12-14 21:56:00,10.1,8.0,30.19,ESE,102,7.0,14.0,91,0.00,,---,0.00,VWS V14.01,2013-12-15 02:56:00,
2013-12-14 22:00:00,10.2,8.1,30.19,East,82,3.0,12.0,91,0.00,,---,0.00,VWS V14.01,2013-12-15 03:00:00,
2013-12-14 22:01:00,10.2,8.1,30.19,East,82,3.0,12.0,91,0.00,,---,0.00,VWS V14.01,2013-12-15 03:01:00,
2013-12-14 22:05:00,10.4,8.3,30.19,East,95,9.0,12.0,91,0.00,,---,0.00,VWS V14.01,2013-12-15 03:05:00,
2013-12-14 22:06:00,10.4,8.3,30.19,East,95,9.0,12.0,91,0.00,,---,0.00,VWS V14.01,2013-12-15 03:06:00,
2013-12-14 22:10:00,10.5,8.4,30.17,East,91,12.0,15.0,91,0.00,,---,0.00,VWS V14.01,2013-12-15 03:10:00,
2013-12-14 22:11:00,10.5,8.4,30.17,East,91,12.0,15.0,91,0.00,,---,0.00,VWS V14.01,2013-12-15 03:11:00,
2013-12-14 22:15:00,10.6,8.5,30.17,East,82,12.0,13.0,91,0.00,,---,0.00,VWS V14.01,2013-12-15 03:15:00,
2013-12-14 22:16:00,10.6,8.5,30.17,East,82,12.0,13.0,91,0.00,,---,0.00,VWS V14.01,2013-12-15 03:16:00,
2013-12-14 22:20:00,10.8,8.7,30.18,ESE,117,6.0,14.0,91,0.00,,---,0.00,VWS V14.01,2013-12-15 03:20:00,
2013-12-14 22:21:00,10.8,8.7,30.18,ESE,117,6.0,14.0,91,0.00,,---,0.00,VWS V14.01,2013-12-15 03:21:00,
2013-12-14 22:25:00,10.9,8.8,30.16,East,89,9.0,18.0,91,0.00,,---,0.00,VWS V14.01,2013-12-15 03:25:00,
2013-12-14 22:26:00,10.9,8.8,30.16,East,89,9.0,18.0,91,0.00,,---,0.00,VWS V14.01,2013-12-15 03:26:00,
2013-12-14 22:30:00,10.9,8.8,30.15,ESE,112,12.0,18.0,91,0.00,,---,0.00,VWS V14.01,2013-12-15 03:30:00,
2013-12-14 22:31:00,10.9,8.8,30.15,ESE,112,12.0,18.0,91,0.00,,---,0.00,VWS V14.01,2013-12-15 03:31:00,
2013-12-14 22:35:00,11.0,8.9,30.16,SE,128,10.0,16.0,91,0.00,,---,0.00,VWS V14.01,2013-12-15 03:35:00,
2013-12-14 22:36:00,11.0,8.9,30.16,SE,128,10.0,16.0,91,0.00,,---,0.00,VWS V14.01,2013-12-15 03:36:00,
2013-12-14 22:40:00,11.0,8.9,30.15,ESE,110,11.0,14.0,91,0.00,,---,0.00,VWS V14.01,2013-12-15 03:40:00,
2013-12-14 22:41:00,11.0,8.9,30.15,ESE,110,11.0,14.0,91,0.00,,---,0.00,VWS V14.01,2013-12-15 03:41:00,
2013-12-14 22:45:00,11.1,9.0,30.14,ESE,108,12.0,16.0,91,0.00,,---,0.00,VWS V14.01,2013-12-15 03:45:00,
2013-12-14 22:46:00,11.1,9.0,30.14,ESE,108,12.0,16.0,91,0.00,,---,0.00,VWS V14.01,2013-12-15 03:46:00,
2013-12-14 22:50:00,11.1,9.0,30.14,ENE,75,11.0,16.0,91,0.00,,---,0.00,VWS V14.01,2013-12-15 03:50:00,
2013-12-14 22:51:00,11.1,9.0,30.14,ENE,75,11.0,16.0,91,0.00,,---,0.00,VWS V14.01,2013-12-15 03:51:00,
2013-12-14 22:55:00,11.1,9.2,30.13,East,94,9.0,15.0,92,0.00,,---,0.00,VWS V14.01,2013-12-15 03:55:00,
2013-12-14 22:56:00,11.1,9.2,30.13,East,94,9.0,15.0,92,0.00,,---,0.00,VWS V14.01,2013-12-15 03:56:00,
2013-12-14 23:00:00,11.3,9.2,30.12,ESE,106,10.0,16.0,91,0.00,,---,0.00,VWS V14.01,2013-12-15 04:00:00,
2013-12-14 23:01:00,11.3,9.2,30.12,ESE,106,10.0,16.0,91,0.00,,---,0.00,VWS V14.01,2013-12-15 04:01:00,
2013-12-14 23:05:00,11.4,9.5,30.13,ESE,115,7.0,12.0,92,0.00,,---,0.00,VWS V14.01,2013-12-15 04:05:00,
2013-12-14 23:10:00,11.5,9.6,30.12,ESE,106,10.0,18.0,92,0.00,,---,0.00,VWS V14.01,2013-12-15 04:10:00,
2013-12-14 23:11:00,11.5,9.6,30.12,ESE,106,10.0,18.0,92,0.00,,---,0.00,VWS V14.01,2013-12-15 04:11:00,
2013-12-14 23:15:00,11.7,9.8,30.11,SE,124,9.0,16.0,92,0.00,,---,0.00,VWS V14.01,2013-12-15 04:15:00,
2013-12-14 23:16:00,11.7,9.8,30.11,SE,124,9.0,16.0,92,0.00,,---,0.00,VWS V14.01,2013-12-15 04:16:00,
2013-12-14 23:20:00,11.9,10.0,30.10,ESE,107,7.0,19.0,92,0.00,,---,0.00,VWS V14.01,2013-12-15 04:20:00,
2013-12-14 23:21:00,11.9,10.0,30.10,ESE,107,7.0,19.0,92,0.00,,---,0.00,VWS V14.01,2013-12-15 04:21:00,
2013-12-14 23:25:00,12.0,10.1,30.10,East,79,14.0,14.0,92,0.00,,---,0.00,VWS V14.01,2013-12-15 04:25:00,
2013-12-14 23:26:00,12.0,10.1,30.10,East,79,14.0,14.0,92,0.00,,---,0.00,VWS V14.01,2013-12-15 04:26:00,
2013-12-14 23:30:00,12.2,10.3,30.09,East,94,7.0,15.0,92,0.00,,---,0.00,VWS V14.01,2013-12-15 04:30:00,
2013-12-14 23:31:00,12.2,10.3,30.09,East,94,7.0,15.0,92,0.00,,---,0.00,VWS V14.01,2013-12-15 04:31:00,
2013-12-14 23:35:00,12.3,10.4,30.08,ESE,122,11.0,17.0,92,0.00,,---,0.00,VWS V14.01,2013-12-15 04:35:00,
2013-12-14 23:36:00,12.3,10.4,30.08,ESE,122,11.0,17.0,92,0.00,,---,0.00,VWS V14.01,2013-12-15 04:36:00,
2013-12-14 23:40:00,12.4,10.5,30.08,ESE,108,9.0,12.0,92,0.00,,---,0.00,VWS V14.01,2013-12-15 04:40:00,
2013-12-14 23:41:00,12.4,10.5,30.08,ESE,108,9.0,12.0,92,0.00,,---,0.00,VWS V14.01,2013-12-15 04:41:00,
2013-12-14 23:45:00,12.4,10.5,30.07,ESE,118,8.0,15.0,92,0.00,,---,0.00,VWS V14.01,2013-12-15 04:45:00,
2013-12-14 23:46:00,12.4,10.5,30.07,ESE,118,8.0,15.0,92,0.00,,---,0.00,VWS V14.01,2013-12-15 04:46:00,
2013-12-14 23:50:00,12.5,10.6,30.06,East,85,6.0,15.0,92,0.00,,---,0.00,VWS V14.01,2013-12-15 04:50:00,
2013-12-14 23:51:00,12.5,10.6,30.06,East,85,6.0,15.0,92,0.00,,---,0.00,VWS V14.01,2013-12-15 04:51:00,
2013-12-14 23:55:00,12.5,10.6,30.06,ESE,120,7.0,13.0,92,0.00,,---,0.00,VWS V14.01,2013-12-15 04:55:00,
2013-12-14 23:56:00,12.5,10.6,30.06,ESE,120,7.0,13.0,92,0.00,,---,0.00,VWS V14.01,2013-12-15 04:56:00,